createdAt,value
2023-02-18T00:01:22.267Z,12.52
2023-02-18T00:03:48.704Z,12.14
2023-02-18T00:06:15.101Z,11.95
2023-02-18T00:08:41.466Z,12.12
2023-02-18T00:11:07.818Z,12.12
2023-02-18T00:13:34.159Z,11.87
2023-02-18T00:16:00.510Z,12.13
2023-02-18T00:18:26.871Z,12.04
2023-02-18T00:20:53.238Z,11.84
2023-02-18T00:23:19.620Z,11.95
2023-02-18T00:25:45.982Z,11.81
2023-02-18T00:28:12.348Z,11.66
2023-02-18T00:30:38.696Z,11.73
2023-02-18T00:33:05.024Z,12.44
2023-02-18T00:35:31.408Z,12.15
2023-02-18T00:37:57.809Z,12.25
2023-02-18T00:40:24.159Z,12.24
2023-02-18T00:42:50.492Z,11.93
2023-02-18T00:45:16.869Z,11.94
2023-02-18T00:47:43.224Z,12.44
2023-02-18T00:50:09.597Z,12.21
2023-02-18T00:52:35.949Z,11.90
2023-02-18T00:55:02.295Z,12.14
2023-02-18T00:57:28.625Z,11.88
2023-02-18T00:59:55.020Z,11.89
2023-02-18T01:02:21.402Z,11.97
2023-02-18T01:04:47.837Z,11.76
2023-02-18T01:07:14.240Z,11.59
2023-02-18T01:09:40.590Z,11.39
2023-02-18T01:12:06.930Z,11.39
2023-02-18T01:14:33.303Z,11.96
2023-02-18T01:16:59.652Z,11.91
2023-02-18T01:19:25.988Z,11.84
2023-02-18T01:21:52.388Z,12.08
2023-02-18T01:24:18.776Z,11.60
2023-02-18T01:26:45.181Z,11.29
2023-02-18T01:29:11.531Z,11.43
2023-02-18T01:31:38.004Z,11.99
2023-02-18T01:34:04.387Z,11.54
2023-02-18T01:36:30.754Z,11.26
2023-02-18T01:38:57.140Z,11.25
2023-02-18T01:41:23.541Z,11.23
2023-02-18T01:43:49.884Z,11.08
2023-02-18T01:46:16.269Z,11.08
2023-02-18T01:48:42.623Z,11.58
2023-02-18T01:51:08.967Z,11.85
2023-02-18T01:53:35.355Z,11.61
2023-02-18T01:56:01.734Z,11.51
2023-02-18T01:58:28.122Z,11.64
2023-02-18T02:00:54.524Z,11.80
2023-02-18T02:03:20.948Z,11.89
2023-02-18T02:05:48.454Z,11.81
2023-02-18T02:08:14.799Z,11.98
2023-02-18T02:10:41.143Z,11.97
2023-02-18T02:13:07.486Z,11.67
2023-02-18T02:15:33.880Z,11.58
2023-02-18T02:18:00.264Z,11.44
2023-02-18T02:20:26.626Z,11.26
2023-02-18T02:22:52.966Z,11.23
2023-02-18T02:25:19.303Z,11.14
2023-02-18T02:27:45.668Z,11.31
2023-02-18T02:30:12.071Z,11.43
2023-02-18T02:32:38.505Z,11.17
2023-02-18T02:35:04.891Z,11.31
2023-02-18T02:37:31.255Z,11.16
2023-02-18T02:39:57.609Z,11.24
2023-02-18T02:42:23.997Z,11.25
2023-02-18T02:44:50.346Z,11.39
2023-02-18T02:47:16.680Z,11.55
2023-02-18T02:49:43.018Z,11.26
2023-02-18T02:52:09.409Z,11.56
2023-02-18T02:54:35.835Z,11.73
2023-02-18T02:57:02.228Z,11.55
2023-02-18T02:59:28.617Z,11.28
2023-02-18T03:01:55.049Z,11.03
2023-02-18T03:04:21.444Z,11.40
2023-02-18T03:06:47.842Z,11.61
2023-02-18T03:09:14.242Z,11.62
2023-02-18T03:11:40.618Z,11.31
2023-02-18T03:14:06.992Z,11.32
2023-02-18T03:16:33.368Z,11.43
2023-02-18T03:18:59.717Z,11.59
2023-02-18T03:21:26.097Z,11.43
2023-02-18T03:23:52.503Z,11.38
2023-02-18T03:26:18.896Z,11.62
2023-02-18T03:28:45.295Z,11.69
2023-02-18T03:31:11.722Z,11.82
2023-02-18T03:33:38.141Z,11.67
2023-02-18T03:36:04.542Z,11.81
2023-02-18T03:38:30.883Z,11.94
2023-02-18T03:40:57.268Z,11.78
2023-02-18T03:43:23.623Z,11.72
2023-02-18T03:45:49.977Z,11.68
2023-02-18T03:48:16.352Z,11.70
2023-02-18T03:50:42.751Z,11.91
2023-02-18T03:53:09.143Z,12.24
2023-02-18T03:55:35.495Z,11.95
2023-02-18T03:58:01.891Z,11.84
2023-02-18T04:00:28.239Z,11.62
2023-02-18T04:02:54.642Z,11.56
2023-02-18T04:05:21.046Z,12.23
2023-02-18T04:07:47.433Z,12.37
2023-02-18T04:10:13.824Z,12.13
2023-02-18T04:12:40.203Z,11.98
2023-02-18T04:15:06.574Z,12.02
2023-02-18T04:17:32.954Z,12.01
2023-02-18T04:19:59.328Z,11.93
2023-02-18T04:22:25.658Z,12.04
2023-02-18T04:24:52.034Z,11.73
2023-02-18T04:27:18.444Z,11.67
2023-02-18T04:29:44.845Z,11.73
2023-02-18T04:32:11.234Z,11.73
2023-02-18T04:34:37.584Z,11.55
2023-02-18T04:37:03.961Z,11.35
2023-02-18T04:39:30.310Z,11.35
2023-02-18T04:41:56.697Z,11.10
2023-02-18T04:44:23.096Z,11.49
2023-02-18T04:46:49.458Z,11.45
2023-02-18T04:49:15.804Z,11.89
2023-02-18T04:51:42.141Z,11.54
2023-02-18T04:54:08.525Z,11.41
2023-02-18T04:56:34.914Z,11.27
2023-02-18T04:59:01.302Z,10.97
2023-02-18T05:01:27.741Z,11.12
2023-02-18T05:03:54.165Z,10.85
2023-02-18T05:06:20.578Z,10.70
2023-02-18T05:08:47.044Z,10.73
2023-02-18T05:11:13.391Z,10.62
2023-02-18T05:13:39.758Z,10.61
2023-02-18T05:16:06.416Z,10.62
2023-02-18T05:18:32.915Z,10.60
2023-02-18T05:20:59.313Z,11.01
2023-02-18T05:23:25.674Z,10.89
2023-02-18T05:25:52.046Z,10.85
2023-02-18T05:28:18.380Z,10.85
2023-02-18T05:30:44.802Z,10.94
2023-02-18T05:33:11.202Z,10.88
2023-02-18T05:35:37.560Z,10.74
2023-02-18T05:38:03.942Z,10.72
2023-02-18T05:40:30.348Z,10.55
2023-02-18T05:42:56.690Z,10.48
2023-02-18T05:45:23.029Z,10.42
2023-02-18T05:47:49.538Z,10.86
2023-02-18T05:50:15.906Z,10.96
2023-02-18T05:52:42.296Z,10.71
2023-02-18T05:55:08.692Z,10.61
2023-02-18T05:57:35.119Z,10.59
2023-02-18T06:00:01.488Z,10.84
2023-02-18T06:02:27.861Z,10.70
2023-02-18T06:04:54.215Z,10.57
2023-02-18T06:07:20.682Z,10.52
2023-02-18T06:09:47.062Z,10.48
2023-02-18T06:12:13.455Z,10.15
2023-02-18T06:14:42.048Z,10.27
2023-02-18T06:17:08.483Z,10.25
2023-02-18T06:19:34.857Z,10.15
2023-02-18T06:22:01.204Z,10.10
2023-02-18T06:24:27.542Z,10.03
2023-02-18T06:26:53.917Z,10.10
2023-02-18T06:29:20.323Z,10.08
2023-02-18T06:31:46.783Z,10.12
2023-02-18T06:34:13.195Z,10.18
2023-02-18T06:36:39.549Z,10.12
2023-02-18T06:39:05.937Z,10.38
2023-02-18T06:41:32.280Z,10.45
2023-02-18T06:43:58.631Z,10.35
2023-02-18T06:46:25.001Z,11.13
2023-02-18T06:48:51.344Z,11.53
2023-02-18T06:51:17.684Z,11.56
2023-02-18T06:53:44.159Z,11.62
2023-02-18T06:56:10.792Z,11.69
2023-02-18T06:58:37.254Z,11.45
2023-02-18T07:01:03.644Z,11.53
2023-02-18T07:03:30.044Z,11.28
2023-02-18T07:05:56.449Z,11.27
2023-02-18T07:08:22.803Z,11.57
2023-02-18T07:10:49.148Z,11.49
2023-02-18T07:13:15.530Z,11.64
2023-02-18T07:15:41.892Z,11.50
2023-02-18T07:18:08.230Z,11.28
2023-02-18T07:20:34.570Z,11.44
2023-02-18T07:23:00.950Z,11.52
2023-02-18T07:25:27.331Z,11.66
2023-02-18T07:27:53.712Z,11.50
2023-02-18T07:30:20.182Z,11.30
2023-02-18T07:32:46.561Z,11.51
2023-02-18T07:35:12.922Z,11.42
2023-02-18T07:37:39.260Z,11.39
2023-02-18T07:40:05.650Z,11.31
2023-02-18T07:42:32.006Z,11.51
2023-02-18T07:44:58.381Z,11.57
2023-02-18T07:47:24.772Z,11.75
2023-02-18T07:49:51.123Z,11.62
2023-02-18T07:52:17.458Z,11.78
2023-02-18T07:54:43.799Z,12.15
2023-02-18T07:57:10.203Z,12.52
2023-02-18T07:59:36.591Z,12.64
2023-02-18T08:02:02.990Z,12.61
2023-02-18T08:04:29.458Z,12.80
2023-02-18T08:06:55.891Z,13.37
2023-02-18T08:09:22.295Z,13.28
2023-02-18T08:11:48.649Z,13.18
2023-02-18T08:14:14.997Z,13.30
2023-02-18T08:16:41.432Z,13.11
2023-02-18T08:19:07.852Z,13.28
2023-02-18T08:21:34.224Z,13.31
2023-02-18T08:24:00.612Z,13.33
2023-02-18T08:26:26.979Z,13.76
2023-02-18T08:28:53.375Z,13.76
2023-02-18T08:31:19.852Z,13.77
2023-02-18T08:33:46.309Z,13.95
2023-02-18T08:36:12.654Z,13.51
2023-02-18T08:38:38.998Z,13.96
2023-02-18T08:41:05.566Z,14.06
2023-02-18T08:43:31.984Z,13.98
2023-02-18T08:45:58.460Z,13.41
2023-02-18T08:48:24.883Z,13.87
2023-02-18T08:50:51.298Z,14.03
2023-02-18T08:53:17.651Z,14.11
2023-02-18T08:55:44.004Z,14.29
2023-02-18T08:58:10.346Z,14.40
2023-02-18T09:00:36.731Z,14.04
2023-02-18T09:05:43.335Z,14.54
2023-02-18T09:08:09.737Z,14.69
2023-02-18T09:10:36.092Z,14.83
2023-02-18T09:13:02.450Z,14.84
2023-02-18T09:15:28.821Z,14.85
2023-02-18T09:17:55.205Z,15.02
2023-02-18T09:20:21.562Z,14.94
2023-02-18T09:22:47.900Z,14.97
2023-02-18T09:25:14.313Z,15.02
2023-02-18T09:27:40.675Z,15.08
2023-02-18T09:30:07.088Z,15.13
2023-02-18T09:32:35.156Z,15.04
2023-02-18T09:35:01.868Z,15.22
2023-02-18T09:37:28.243Z,14.88
2023-02-18T09:39:54.642Z,15.36
2023-02-18T09:42:21.005Z,14.53
2023-02-18T09:44:47.352Z,14.17
2023-02-18T09:47:13.729Z,14.79
2023-02-18T09:49:40.102Z,14.93
2023-02-18T09:52:06.438Z,15.19
2023-02-18T09:54:32.790Z,15.30
2023-02-18T09:56:59.176Z,15.23
2023-02-18T09:59:25.580Z,15.05
2023-02-18T10:01:52.093Z,15.31
2023-02-18T10:04:18.536Z,15.52
2023-02-18T10:06:44.931Z,15.53
2023-02-18T10:09:11.326Z,14.77
2023-02-18T10:11:37.680Z,14.85
2023-02-18T10:14:04.316Z,14.41
2023-02-18T10:16:30.769Z,14.56
2023-02-18T10:18:57.137Z,14.87
2023-02-18T10:21:23.485Z,15.00
2023-02-18T10:23:49.823Z,14.43
2023-02-18T10:26:16.166Z,14.41
2023-02-18T10:28:42.526Z,14.35
2023-02-18T10:31:09.234Z,14.19
2023-02-18T10:33:35.787Z,14.57
2023-02-18T10:36:02.172Z,14.83
2023-02-18T10:38:28.529Z,14.93
2023-02-18T10:40:54.905Z,14.38
2023-02-18T10:43:21.260Z,14.76
2023-02-18T10:45:47.636Z,14.75
2023-02-18T10:48:13.991Z,14.50
2023-02-18T10:50:40.363Z,14.96
2023-02-18T10:53:06.705Z,15.00
2023-02-18T10:55:33.051Z,15.18
2023-02-18T10:57:59.393Z,15.41
2023-02-18T11:00:25.780Z,15.30
2023-02-18T11:02:52.184Z,15.59
2023-02-18T11:05:18.569Z,15.86
2023-02-18T11:07:44.922Z,15.63
2023-02-18T11:10:11.272Z,15.37
2023-02-18T11:12:37.648Z,15.39
2023-02-18T11:15:03.998Z,15.29
2023-02-18T11:17:30.374Z,15.73
2023-02-18T11:19:56.790Z,15.91
2023-02-18T11:22:23.140Z,15.93
2023-02-18T11:24:49.510Z,16.18
2023-02-18T11:27:15.911Z,15.88
2023-02-18T11:29:42.306Z,16.14
2023-02-18T11:32:08.758Z,15.90
2023-02-18T11:34:35.128Z,16.10
2023-02-18T11:37:01.482Z,15.48
2023-02-18T11:39:27.868Z,15.85
2023-02-18T11:41:54.224Z,15.67
2023-02-18T11:44:20.639Z,16.14
2023-02-18T11:46:47.044Z,16.39
2023-02-18T11:49:13.461Z,16.49
2023-02-18T11:51:39.841Z,16.41
2023-02-18T11:54:06.207Z,16.42
2023-02-18T11:56:32.586Z,16.36
2023-02-18T11:58:58.970Z,16.08
2023-02-18T12:01:25.328Z,16.40
2023-02-18T12:03:51.718Z,16.64
2023-02-18T12:06:18.083Z,16.60
2023-02-18T12:08:44.437Z,16.73
2023-02-18T12:11:11.068Z,16.72
2023-02-18T12:13:37.503Z,16.74
2023-02-18T12:16:04.257Z,16.82
2023-02-18T12:18:30.695Z,16.73
2023-02-18T12:20:57.081Z,16.57
2023-02-18T12:23:23.445Z,16.15
2023-02-18T12:25:49.794Z,16.51
2023-02-18T12:28:16.148Z,16.30
2023-02-18T12:30:42.547Z,16.82
2023-02-18T12:33:08.932Z,16.97
2023-02-18T12:35:35.278Z,17.09
2023-02-18T12:38:01.628Z,16.95
2023-02-18T12:40:28.022Z,17.14
2023-02-18T12:42:54.413Z,16.83
2023-02-18T12:45:20.805Z,16.85
2023-02-18T12:47:47.154Z,17.03
2023-02-18T12:50:13.538Z,17.17
2023-02-18T12:52:39.886Z,16.64
2023-02-18T12:55:06.228Z,16.35
2023-02-18T12:57:32.621Z,16.65
2023-02-18T12:59:59.016Z,15.98
2023-02-18T13:02:25.362Z,16.29
2023-02-18T13:04:51.746Z,16.48
2023-02-18T13:07:18.103Z,16.13
2023-02-18T13:09:44.442Z,16.60
2023-02-18T13:12:10.786Z,16.89
2023-02-18T13:14:37.164Z,17.17
2023-02-18T13:17:03.528Z,17.08
2023-02-18T13:19:29.876Z,17.12
2023-02-18T13:21:56.256Z,16.67
2023-02-18T13:24:22.639Z,17.09
2023-02-18T13:26:49.021Z,17.17
2023-02-18T13:29:15.416Z,16.40
2023-02-18T13:31:41.843Z,16.31
2023-02-18T13:34:08.291Z,16.28
2023-02-18T13:36:34.686Z,16.51
2023-02-18T13:39:01.078Z,16.80
2023-02-18T13:41:27.432Z,17.07
2023-02-18T13:43:53.814Z,17.12
2023-02-18T13:46:20.192Z,17.07
2023-02-18T13:48:46.551Z,17.45
2023-02-18T13:51:12.942Z,16.90
2023-02-18T13:53:39.296Z,16.69
2023-02-18T13:56:05.668Z,17.41
2023-02-18T13:58:32.064Z,17.46
2023-02-18T14:00:58.458Z,17.35
2023-02-18T14:03:24.811Z,17.04
2023-02-18T14:05:51.189Z,17.39
2023-02-18T14:08:17.625Z,17.31
2023-02-18T14:10:44.027Z,17.27
2023-02-18T14:13:10.380Z,17.00
2023-02-18T14:15:36.820Z,17.20
2023-02-18T14:18:03.199Z,17.62
2023-02-18T14:20:29.596Z,17.68
2023-02-18T14:22:55.954Z,17.68
2023-02-18T14:25:22.340Z,17.84
2023-02-18T14:27:48.699Z,17.66
2023-02-18T14:30:15.128Z,17.89
2023-02-18T14:32:41.522Z,17.85
2023-02-18T14:35:07.862Z,17.71
2023-02-18T14:37:34.246Z,17.20
2023-02-18T14:40:00.668Z,17.38
2023-02-18T14:42:27.023Z,17.70
2023-02-18T14:44:53.406Z,17.88
2023-02-18T14:47:19.759Z,17.66
2023-02-18T14:49:46.113Z,17.54
2023-02-18T14:52:12.497Z,17.24
2023-02-18T14:54:38.894Z,17.45
2023-02-18T14:57:05.289Z,17.34
2023-02-18T14:59:31.693Z,16.86
2023-02-18T15:01:58.090Z,16.85
2023-02-18T15:04:24.617Z,16.86
2023-02-18T15:06:51.001Z,17.52
2023-02-18T15:09:17.402Z,17.60
2023-02-18T15:11:43.797Z,17.35
2023-02-18T15:14:10.150Z,17.39
2023-02-18T15:16:36.533Z,17.42
2023-02-18T15:19:03.121Z,17.51
2023-02-18T15:21:29.542Z,17.68
2023-02-18T15:23:55.894Z,17.73
2023-02-18T15:26:22.325Z,17.31
2023-02-18T15:28:48.729Z,17.77
2023-02-18T15:31:15.720Z,17.69
2023-02-18T15:33:42.260Z,17.33
2023-02-18T15:36:08.643Z,17.67
2023-02-18T15:38:35.003Z,17.80
2023-02-18T15:41:01.420Z,17.32
2023-02-18T15:43:27.835Z,17.67
2023-02-18T15:45:54.247Z,17.40
2023-02-18T15:48:20.640Z,17.85
2023-02-18T15:50:47.002Z,17.71
2023-02-18T15:53:13.383Z,17.18
2023-02-18T15:55:39.742Z,17.71
2023-02-18T15:58:06.111Z,17.10
2023-02-18T16:00:32.536Z,17.66
2023-02-18T16:02:58.933Z,17.65
2023-02-18T16:05:25.331Z,17.49
2023-02-18T16:07:51.714Z,17.41
2023-02-18T16:10:18.112Z,17.34
2023-02-18T16:12:44.470Z,16.98
2023-02-18T16:15:10.865Z,16.69
2023-02-18T16:17:37.222Z,16.69
2023-02-18T16:20:05.629Z,16.51
2023-02-18T16:22:32.305Z,16.34
2023-02-18T16:24:58.674Z,16.20
2023-02-18T16:27:25.054Z,16.19
2023-02-18T16:29:51.443Z,16.13
2023-02-18T16:32:17.873Z,15.96
2023-02-18T16:34:44.282Z,15.77
2023-02-18T16:37:10.636Z,15.69
2023-02-18T16:39:36.983Z,15.47
2023-02-18T16:42:03.371Z,15.81
2023-02-18T16:44:29.722Z,15.48
2023-02-18T16:46:56.110Z,15.31
2023-02-18T16:49:22.492Z,15.18
2023-02-18T16:51:48.842Z,15.11
2023-02-18T16:54:15.233Z,15.22
2023-02-18T16:56:41.607Z,15.10
2023-02-18T16:59:07.981Z,15.12
2023-02-18T17:01:34.373Z,14.99
2023-02-18T17:04:00.804Z,14.94
2023-02-18T17:06:27.318Z,15.03
2023-02-18T17:08:53.713Z,14.92
2023-02-18T17:11:20.114Z,14.70
2023-02-18T17:13:46.464Z,14.67
2023-02-18T17:16:12.961Z,14.57
2023-02-18T17:18:39.441Z,14.54
2023-02-18T17:21:05.870Z,14.49
2023-02-18T17:23:32.275Z,14.38
2023-02-18T17:25:58.667Z,14.29
2023-02-18T17:28:25.019Z,14.10
2023-02-18T17:30:51.407Z,14.00
2023-02-18T17:33:17.810Z,14.10
2023-02-18T17:35:44.163Z,14.09
2023-02-18T17:38:10.510Z,14.43
2023-02-18T17:40:36.905Z,14.15
2023-02-18T17:43:03.440Z,14.04
2023-02-18T17:45:29.853Z,13.97
2023-02-18T17:47:56.216Z,14.17
2023-02-18T17:50:22.600Z,14.21
2023-02-18T17:52:48.968Z,14.16
2023-02-18T17:55:15.363Z,14.52
2023-02-18T17:57:41.715Z,14.23
2023-02-18T18:00:08.079Z,14.46
2023-02-18T18:02:34.424Z,14.29
2023-02-18T18:05:00.811Z,14.05
2023-02-18T18:07:27.250Z,13.72
2023-02-18T18:09:53.699Z,13.64
2023-02-18T18:12:20.109Z,13.59
2023-02-18T18:14:46.456Z,13.68
2023-02-18T18:17:12.896Z,13.97
2023-02-18T18:19:39.291Z,13.57
2023-02-18T18:22:05.671Z,13.50
2023-02-18T18:24:32.069Z,13.54
2023-02-18T18:26:58.559Z,13.90
2023-02-18T18:29:24.926Z,13.79
2023-02-18T18:31:51.331Z,13.61
2023-02-18T18:34:17.733Z,13.40
2023-02-18T18:36:44.083Z,13.52
2023-02-18T18:39:10.435Z,13.56
2023-02-18T18:41:36.829Z,13.62
2023-02-18T18:44:03.190Z,13.76
2023-02-18T18:46:29.613Z,14.21
2023-02-18T18:48:56.044Z,14.28
2023-02-18T18:51:22.682Z,13.88
2023-02-18T18:53:49.060Z,13.59
2023-02-18T18:56:15.467Z,13.49
2023-02-18T18:58:41.879Z,13.26
2023-02-18T19:01:08.688Z,13.58
2023-02-18T19:03:35.387Z,13.28
2023-02-18T19:06:01.756Z,13.71
2023-02-18T19:08:28.105Z,13.57
2023-02-18T19:10:54.459Z,13.37
2023-02-18T19:13:20.805Z,13.75
2023-02-18T19:15:47.220Z,13.74
2023-02-18T19:18:13.574Z,13.43
2023-02-18T19:20:40.902Z,13.61
2023-02-18T19:23:09.037Z,13.32
2023-02-18T19:25:35.392Z,13.13
2023-02-18T19:28:01.735Z,13.42
2023-02-18T19:30:28.160Z,13.66
2023-02-18T19:32:54.527Z,13.73
2023-02-18T19:35:20.906Z,13.63
2023-02-18T19:37:47.259Z,13.49
2023-02-18T19:40:13.605Z,13.38
2023-02-18T19:42:39.985Z,12.99
2023-02-18T19:45:06.333Z,13.55
2023-02-18T19:47:32.672Z,13.12
2023-02-18T19:49:59.017Z,12.94
2023-02-18T19:52:25.408Z,12.95
2023-02-18T19:54:51.805Z,12.74
2023-02-18T19:57:18.186Z,12.62
2023-02-18T19:59:44.580Z,13.16
2023-02-18T20:02:10.938Z,12.71
2023-02-18T20:04:37.275Z,12.57
2023-02-18T20:07:03.615Z,12.72
2023-02-18T20:09:29.967Z,12.97
2023-02-18T20:11:56.311Z,12.86
2023-02-18T20:14:22.646Z,12.97
2023-02-18T20:16:49.038Z,13.01
2023-02-18T20:19:15.424Z,12.78
2023-02-18T20:21:41.775Z,12.61
2023-02-18T20:24:08.111Z,12.51
2023-02-18T20:26:34.450Z,12.58
2023-02-18T20:29:00.794Z,12.62
2023-02-18T20:31:27.226Z,12.37
2023-02-18T20:33:53.669Z,12.58
2023-02-18T20:36:20.060Z,12.81
2023-02-18T20:38:46.393Z,12.73
2023-02-18T20:41:12.978Z,12.77
2023-02-18T20:43:39.370Z,12.65
2023-02-18T20:46:05.781Z,12.67
2023-02-18T20:48:32.133Z,12.68
2023-02-18T20:50:58.510Z,12.31
2023-02-18T20:53:24.869Z,12.29
2023-02-18T20:55:51.240Z,12.79
2023-02-18T20:58:17.588Z,12.99
2023-02-18T21:00:43.961Z,12.63
2023-02-18T21:03:10.317Z,12.33
2023-02-18T21:05:36.693Z,12.10
2023-02-18T21:08:03.041Z,12.24
2023-02-18T21:10:29.408Z,12.76
2023-02-18T21:12:55.796Z,12.65
2023-02-18T21:15:22.153Z,12.39
2023-02-18T21:17:48.526Z,11.96
2023-02-18T21:20:14.873Z,12.57
2023-02-18T21:22:41.212Z,12.80
2023-02-18T21:25:07.616Z,12.90
2023-02-18T21:27:33.969Z,12.32
2023-02-18T21:30:00.410Z,12.79
2023-02-18T21:32:27.000Z,12.80
2023-02-18T21:34:53.557Z,12.47
2023-02-18T21:37:19.957Z,11.94
2023-02-18T21:39:46.343Z,11.73
2023-02-18T21:42:12.753Z,11.54
2023-02-18T21:44:43.102Z,11.49
2023-02-18T21:47:09.564Z,11.53
2023-02-18T21:49:35.933Z,11.27
2023-02-18T21:52:02.319Z,11.29
2023-02-18T21:54:28.710Z,11.19
2023-02-18T21:56:55.072Z,11.82
2023-02-18T21:59:21.468Z,11.69
2023-02-18T22:01:47.851Z,11.86
2023-02-18T22:04:14.277Z,11.87
2023-02-18T22:06:40.674Z,12.37
2023-02-18T22:09:07.065Z,12.41
2023-02-18T22:11:33.457Z,12.57
2023-02-18T22:13:59.826Z,12.65
2023-02-18T22:16:26.182Z,12.37
2023-02-18T22:18:52.546Z,11.88
2023-02-18T22:21:21.002Z,12.00
2023-02-18T22:23:47.485Z,12.08
2023-02-18T22:26:13.857Z,12.14
2023-02-18T22:28:40.250Z,12.57
2023-02-18T22:31:06.632Z,12.42
2023-02-18T22:33:32.975Z,12.28
2023-02-18T22:35:59.352Z,12.67
2023-02-18T22:38:25.743Z,12.50
2023-02-18T22:40:52.100Z,12.07
2023-02-18T22:43:18.449Z,12.49
2023-02-18T22:45:44.804Z,12.47
2023-02-18T22:48:11.156Z,12.43
2023-02-18T22:50:37.492Z,12.45
2023-02-18T22:53:03.869Z,12.48
2023-02-18T22:55:30.231Z,12.28
2023-02-18T22:57:56.568Z,11.97
2023-02-18T23:00:22.908Z,12.11
2023-02-18T23:02:49.289Z,11.94
2023-02-18T23:05:15.641Z,11.75
2023-02-18T23:07:41.992Z,11.78
2023-02-18T23:10:08.340Z,11.61
2023-02-18T23:12:34.723Z,11.76
2023-02-18T23:15:01.078Z,11.59
2023-02-18T23:17:27.432Z,11.48
2023-02-18T23:19:53.771Z,11.03
2023-02-18T23:22:20.185Z,11.18
2023-02-18T23:24:46.564Z,10.87
2023-02-18T23:27:12.938Z,11.53
2023-02-18T23:29:39.318Z,11.22
2023-02-18T23:32:05.709Z,11.67
2023-02-18T23:34:32.088Z,11.27
2023-02-18T23:36:58.468Z,11.65
2023-02-18T23:39:24.861Z,11.10
2023-02-18T23:41:51.227Z,10.91
2023-02-18T23:44:17.613Z,11.15
2023-02-18T23:46:43.966Z,11.09
2023-02-18T23:49:10.308Z,11.63
2023-02-18T23:51:36.692Z,11.50
2023-02-18T23:54:03.036Z,11.57
2023-02-18T23:56:29.421Z,11.44
2023-02-18T23:58:55.815Z,11.03
